createdAt,value
2019-02-18T00:01:02.551Z,9.94
2019-02-18T00:03:35.663Z,9.87
2019-02-18T00:06:10.154Z,9.83
2019-02-18T00:08:43.784Z,9.76
2019-02-18T00:11:21.278Z,9.65
2019-02-18T00:13:56.954Z,9.53
2019-02-18T00:16:31.354Z,9.36
2019-02-18T00:19:04.064Z,9.20
2019-02-18T00:21:36.935Z,9.00
2019-02-18T00:24:09.483Z,8.84
2019-02-18T00:26:42.574Z,8.71
2019-02-18T00:29:17.829Z,8.72
2019-02-18T00:31:50.332Z,8.72
2019-02-18T00:34:23.970Z,8.72
2019-02-18T00:36:58.000Z,8.79
2019-02-18T00:39:30.633Z,8.85
2019-02-18T00:42:04.131Z,8.94
2019-02-18T00:44:37.052Z,8.96
2019-02-18T00:47:09.658Z,8.95
2019-02-18T00:49:42.166Z,8.91
2019-02-18T00:52:16.029Z,8.88
2019-02-18T00:54:48.834Z,8.91
2019-02-18T00:57:21.638Z,8.93
2019-02-18T00:59:54.571Z,9.02
2019-02-18T01:02:27.195Z,9.12
2019-02-18T01:05:00.760Z,9.18
2019-02-18T01:07:36.895Z,9.24
2019-02-18T01:10:12.069Z,9.36
2019-02-18T01:12:44.655Z,9.37
2019-02-18T01:15:17.045Z,9.33
2019-02-18T01:17:49.585Z,9.28
2019-02-18T01:20:21.969Z,9.33
2019-02-18T01:22:55.470Z,9.30
2019-02-18T01:25:28.185Z,9.19
2019-02-18T01:28:00.747Z,9.12
2019-02-18T01:30:33.750Z,9.09
2019-02-18T01:33:06.283Z,9.02
2019-02-18T01:35:38.871Z,8.96
2019-02-18T01:38:11.603Z,8.81
2019-02-18T01:40:44.265Z,8.74
2019-02-18T01:43:17.664Z,8.72
2019-02-18T01:45:54.531Z,8.67
2019-02-18T01:48:28.073Z,8.60
2019-02-18T01:51:00.763Z,8.45
2019-02-18T01:53:33.594Z,8.35
2019-02-18T01:56:06.233Z,8.25
2019-02-18T01:58:39.081Z,8.20
2019-02-18T02:01:11.994Z,8.19
2019-02-18T02:03:44.596Z,8.20
2019-02-18T02:06:17.882Z,8.25
2019-02-18T02:08:51.766Z,8.32
2019-02-18T02:11:24.345Z,8.45
2019-02-18T02:13:56.953Z,8.51
2019-02-18T02:16:31.819Z,8.55
2019-02-18T02:19:04.418Z,8.52
2019-02-18T02:21:37.168Z,8.45
2019-02-18T02:24:11.308Z,8.40
2019-02-18T02:26:44.511Z,8.41
2019-02-18T02:29:17.012Z,8.38
2019-02-18T02:31:49.964Z,8.38
2019-02-18T02:34:23.075Z,8.41
2019-02-18T02:36:56.597Z,8.41
2019-02-18T02:39:29.743Z,8.36
2019-02-18T02:42:04.265Z,8.30
2019-02-18T02:44:36.960Z,8.30
2019-02-18T02:47:10.776Z,8.20
2019-02-18T02:49:43.366Z,8.09
2019-02-18T02:52:16.591Z,8.09
2019-02-18T02:54:49.352Z,8.06
2019-02-18T02:57:21.941Z,7.96
2019-02-18T02:59:54.478Z,7.76
2019-02-18T03:02:27.731Z,7.58
2019-02-18T03:05:00.474Z,7.44
2019-02-18T03:07:33.036Z,7.26
2019-02-18T03:10:06.475Z,7.19
2019-02-18T03:12:39.523Z,7.09
2019-02-18T03:15:14.862Z,6.93
2019-02-18T03:17:47.847Z,6.66
2019-02-18T03:20:20.763Z,6.51
2019-02-18T03:22:53.421Z,6.44
2019-02-18T03:25:28.789Z,6.28
2019-02-18T03:28:13.593Z,6.01
2019-02-18T03:31:01.976Z,5.84
2019-02-18T03:33:45.360Z,5.77
2019-02-18T03:36:17.952Z,5.85
2019-02-18T03:38:52.036Z,5.87
2019-02-18T03:41:24.547Z,5.74
2019-02-18T03:43:57.077Z,5.68
2019-02-18T03:46:31.893Z,5.73
2019-02-18T03:49:04.510Z,5.89
2019-02-18T03:51:37.056Z,5.96
2019-02-18T03:54:10.237Z,6.16
2019-02-18T03:56:42.677Z,6.22
2019-02-18T03:59:15.215Z,5.97
2019-02-18T04:01:49.260Z,5.68
2019-02-18T04:04:21.893Z,5.56
2019-02-18T04:06:54.422Z,5.46
2019-02-18T04:09:27.294Z,5.38
2019-02-18T04:11:59.896Z,5.29
2019-02-18T04:14:33.789Z,5.25
2019-02-18T04:17:06.991Z,5.23
2019-02-18T04:19:40.476Z,5.13
2019-02-18T04:22:13.151Z,5.18
2019-02-18T04:24:46.112Z,5.20
2019-02-18T04:27:18.626Z,5.19
2019-02-18T04:29:51.448Z,5.15
2019-02-18T04:32:24.302Z,5.23
2019-02-18T04:34:56.769Z,5.19
2019-02-18T04:37:29.444Z,5.16
2019-02-18T04:40:02.428Z,5.09
2019-02-18T04:42:35.621Z,5.08
2019-02-18T04:45:09.210Z,5.07
2019-02-18T04:47:44.467Z,5.03
2019-02-18T04:50:17.143Z,5.05
2019-02-18T04:52:49.523Z,5.02
2019-02-18T04:55:23.450Z,5.07
2019-02-18T04:57:56.068Z,5.22
2019-02-18T05:00:29.786Z,5.28
2019-02-18T05:03:03.156Z,5.23
2019-02-18T05:05:36.460Z,5.15
2019-02-18T05:08:08.978Z,5.08
2019-02-18T05:10:43.646Z,5.03
2019-02-18T05:13:16.226Z,5.12
2019-02-18T05:15:50.010Z,5.18
2019-02-18T05:18:23.695Z,5.23
2019-02-18T05:20:56.677Z,5.22
2019-02-18T05:23:29.189Z,5.29
2019-02-18T05:26:03.809Z,5.37
2019-02-18T05:28:36.858Z,5.64
2019-02-18T05:31:09.364Z,5.61
2019-02-18T05:33:43.270Z,5.51
2019-02-18T05:36:15.814Z,5.57
2019-02-18T05:38:48.306Z,5.63
2019-02-18T05:41:21.809Z,5.83
2019-02-18T05:43:55.026Z,5.97
2019-02-18T05:46:29.090Z,6.08
2019-02-18T05:49:03.191Z,6.06
2019-02-18T05:51:35.986Z,6.22
2019-02-18T05:54:08.476Z,6.40
2019-02-18T05:56:41.316Z,6.52
2019-02-18T05:59:13.908Z,6.58
2019-02-18T06:01:47.478Z,6.79
2019-02-18T06:04:21.139Z,6.96
2019-02-18T06:06:53.772Z,7.10
2019-02-18T06:09:30.178Z,7.28
2019-02-18T06:12:04.644Z,7.39
2019-02-18T06:14:37.026Z,7.41
2019-02-18T06:17:09.632Z,7.47
2019-02-18T06:19:43.002Z,7.41
2019-02-18T06:22:15.679Z,7.39
2019-02-18T06:24:50.264Z,7.30
2019-02-18T06:27:23.290Z,7.09
2019-02-18T06:29:56.226Z,6.76
2019-02-18T06:32:30.504Z,6.49
2019-02-18T06:35:04.223Z,6.44
2019-02-18T06:37:37.202Z,6.48
2019-02-18T06:40:10.429Z,6.48
2019-02-18T06:42:43.927Z,6.51
2019-02-18T06:45:31.559Z,6.70
2019-02-18T06:48:09.795Z,6.81
2019-02-18T06:50:43.059Z,6.80
2019-02-18T06:53:16.455Z,6.77
2019-02-18T06:55:49.019Z,6.69
2019-02-18T06:58:28.259Z,6.62
2019-02-18T07:01:06.263Z,6.53
2019-02-18T07:03:45.539Z,6.66
2019-02-18T07:06:38.721Z,6.76
2019-02-18T07:09:31.119Z,6.91
2019-02-18T07:12:09.818Z,7.08
2019-02-18T07:14:42.783Z,7.23
2019-02-18T07:17:19.162Z,7.39
2019-02-18T07:19:51.798Z,7.46
2019-02-18T07:22:26.042Z,7.53
2019-02-18T07:25:00.016Z,7.63
2019-02-18T07:27:32.406Z,7.79
2019-02-18T07:30:14.132Z,7.80
2019-02-18T07:32:47.289Z,7.87
2019-02-18T07:35:20.646Z,7.82
2019-02-18T07:37:53.453Z,7.83
2019-02-18T07:40:25.904Z,7.89
2019-02-18T07:42:58.561Z,8.01
2019-02-18T07:45:31.062Z,8.06
2019-02-18T07:48:03.926Z,8.05
2019-02-18T07:50:37.527Z,8.14
2019-02-18T07:53:20.541Z,8.27
2019-02-18T07:55:58.335Z,8.31
2019-02-18T07:58:32.210Z,8.40
2019-02-18T08:01:05.861Z,8.48
2019-02-18T08:03:38.388Z,8.55
2019-02-18T08:06:11.589Z,8.60
2019-02-18T08:08:44.396Z,8.60
2019-02-18T08:11:18.300Z,8.59
2019-02-18T08:13:52.208Z,8.61
2019-02-18T08:16:39.433Z,8.73
2019-02-18T08:19:19.692Z,8.72
2019-02-18T08:22:32.498Z,8.75
2019-02-18T08:25:13.073Z,8.78
2019-02-18T08:27:45.738Z,8.88
2019-02-18T08:30:19.342Z,8.87
2019-02-18T08:33:05.850Z,9.04
2019-02-18T08:35:40.294Z,9.24
2019-02-18T08:38:14.566Z,9.34
2019-02-18T08:40:47.431Z,9.37
2019-02-18T08:43:23.331Z,9.44
2019-02-18T08:45:56.189Z,9.53
2019-02-18T08:48:30.280Z,9.55
2019-02-18T08:51:13.574Z,9.59
2019-02-18T08:53:48.001Z,9.77
2019-02-18T08:56:22.263Z,9.81
2019-02-18T08:58:56.768Z,9.80
2019-02-18T09:01:48.027Z,9.84
2019-02-18T09:04:20.814Z,9.99
2019-02-18T09:06:56.785Z,10.07
2019-02-18T09:09:32.288Z,10.09
2019-02-18T09:12:06.538Z,10.22
2019-02-18T09:14:40.053Z,10.35
2019-02-18T09:17:17.238Z,10.41
2019-02-18T09:19:55.010Z,10.54
2019-02-18T09:22:48.299Z,10.62
2019-02-18T09:25:43.393Z,10.73
2019-02-18T09:28:19.071Z,10.87
2019-02-18T09:30:55.234Z,11.02
2019-02-18T09:33:27.835Z,11.16
2019-02-18T09:36:04.837Z,11.49
2019-02-18T09:38:37.757Z,12.35
2019-02-18T09:41:11.275Z,13.28
2019-02-18T09:43:44.077Z,13.80
2019-02-18T09:46:17.543Z,14.16
2019-02-18T09:48:50.780Z,14.47
2019-02-18T09:51:24.819Z,14.73
2019-02-18T09:53:58.079Z,14.86
2019-02-18T09:56:36.810Z,15.06
2019-02-18T09:59:12.373Z,15.17
2019-02-18T10:01:44.999Z,15.23
2019-02-18T10:04:19.174Z,15.26
2019-02-18T10:06:51.795Z,15.14
2019-02-18T10:09:25.879Z,15.10
2019-02-18T10:12:00.541Z,15.20
2019-02-18T10:14:34.987Z,15.41
2019-02-18T10:17:09.061Z,15.46
2019-02-18T10:19:47.805Z,15.40
2019-02-18T10:22:21.548Z,15.54
2019-02-18T10:24:57.468Z,15.50
2019-02-18T10:27:32.061Z,15.51
2019-02-18T10:30:07.214Z,15.84
2019-02-18T10:32:43.939Z,16.03
2019-02-18T10:35:17.310Z,15.95
2019-02-18T10:37:55.143Z,15.80
2019-02-18T10:40:29.015Z,15.98
2019-02-18T10:43:03.333Z,16.08
2019-02-18T10:45:37.448Z,16.36
2019-02-18T10:48:10.198Z,16.45
2019-02-18T10:50:42.843Z,16.55
2019-02-18T10:53:22.563Z,16.37
2019-02-18T10:55:59.824Z,16.33
2019-02-18T10:58:33.352Z,16.53
2019-02-18T11:01:07.364Z,16.66
2019-02-18T11:03:39.770Z,16.77
2019-02-18T11:06:12.342Z,16.82
2019-02-18T11:08:48.045Z,16.86
2019-02-18T11:11:20.558Z,16.79
2019-02-18T11:13:56.949Z,16.92
2019-02-18T11:16:30.048Z,17.10
2019-02-18T11:19:02.699Z,17.34
2019-02-18T11:21:35.407Z,17.55
2019-02-18T11:24:08.552Z,17.71
2019-02-18T11:26:41.924Z,17.81
2019-02-18T11:29:16.443Z,17.95
2019-02-18T11:31:48.980Z,17.87
2019-02-18T11:34:21.656Z,18.03
2019-02-18T11:36:55.134Z,17.98
2019-02-18T11:39:30.363Z,17.78
2019-02-18T11:42:03.494Z,17.63
2019-02-18T11:44:36.649Z,17.62
2019-02-18T11:47:11.140Z,17.75
2019-02-18T11:49:44.537Z,17.93
2019-02-18T11:52:17.253Z,18.11
2019-02-18T11:54:49.837Z,18.14
2019-02-18T11:57:22.330Z,18.54
2019-02-18T11:59:59.245Z,18.89
2019-02-18T12:02:31.818Z,19.13
2019-02-18T12:05:11.311Z,18.97
2019-02-18T12:07:46.746Z,18.66
2019-02-18T12:10:22.415Z,18.60
2019-02-18T12:12:55.997Z,18.58
2019-02-18T12:15:30.340Z,18.68
2019-02-18T12:18:05.146Z,18.88
2019-02-18T12:20:40.379Z,18.94
2019-02-18T12:23:13.387Z,18.78
2019-02-18T12:25:47.971Z,18.86
2019-02-18T12:28:22.274Z,18.88
2019-02-18T12:30:56.265Z,18.90
2019-02-18T12:33:31.628Z,18.89
2019-02-18T12:36:05.491Z,19.02
2019-02-18T12:38:41.153Z,19.19
2019-02-18T12:41:18.935Z,19.26
2019-02-18T12:43:51.989Z,19.10
2019-02-18T12:46:25.420Z,19.06
2019-02-18T12:48:58.572Z,18.91
2019-02-18T12:51:31.815Z,18.65
2019-02-18T12:54:06.084Z,18.61
2019-02-18T12:56:39.652Z,18.60
2019-02-18T12:59:12.252Z,18.76
2019-02-18T13:01:47.999Z,18.84
2019-02-18T13:04:22.220Z,18.78
2019-02-18T13:06:57.180Z,18.86
2019-02-18T13:09:31.311Z,18.97
2019-02-18T13:12:06.851Z,19.03
2019-02-18T13:14:41.311Z,19.18
2019-02-18T13:17:15.621Z,19.23
2019-02-18T13:19:50.698Z,19.27
2019-02-18T13:22:23.307Z,19.45
2019-02-18T13:24:56.596Z,19.45
2019-02-18T13:27:34.711Z,19.39
2019-02-18T13:30:13.659Z,19.52
2019-02-18T13:32:46.581Z,19.71
2019-02-18T13:35:21.642Z,19.77
2019-02-18T13:37:55.288Z,19.80
2019-02-18T13:40:28.102Z,19.86
2019-02-18T13:43:00.995Z,19.87
2019-02-18T13:45:33.454Z,19.94
2019-02-18T13:48:06.104Z,19.97
2019-02-18T13:50:38.618Z,19.93
2019-02-18T13:53:13.883Z,19.96
2019-02-18T13:55:47.478Z,20.07
2019-02-18T13:58:26.064Z,20.03
2019-02-18T14:00:58.777Z,20.13
2019-02-18T14:03:33.775Z,20.31
2019-02-18T14:06:06.676Z,20.42
2019-02-18T14:08:39.182Z,20.63
2019-02-18T14:11:13.758Z,20.54
2019-02-18T14:13:48.623Z,20.35
2019-02-18T14:16:21.781Z,20.21
2019-02-18T14:19:00.079Z,20.24
2019-02-18T14:21:35.239Z,20.25
2019-02-18T14:24:12.996Z,20.26
2019-02-18T14:26:48.052Z,20.21
2019-02-18T14:29:20.734Z,20.12
2019-02-18T14:31:54.913Z,20.10
2019-02-18T14:34:32.780Z,19.98
2019-02-18T14:37:07.219Z,19.97
2019-02-18T14:39:40.437Z,20.00
2019-02-18T14:42:14.480Z,19.94
2019-02-18T14:44:47.424Z,20.01
2019-02-18T14:47:23.964Z,20.04
2019-02-18T14:49:57.624Z,20.02
2019-02-18T14:52:31.434Z,20.07
2019-02-18T14:55:05.706Z,19.93
2019-02-18T14:57:38.845Z,19.89
2019-02-18T15:00:24.428Z,19.92
2019-02-18T15:03:02.660Z,20.04
2019-02-18T15:05:36.157Z,20.18
2019-02-18T15:08:11.330Z,20.33
2019-02-18T15:10:47.689Z,20.27
2019-02-18T15:13:34.486Z,20.03
2019-02-18T15:16:12.163Z,19.83
2019-02-18T15:18:44.834Z,19.64
2019-02-18T15:21:19.851Z,19.54
2019-02-18T15:23:54.050Z,19.43
2019-02-18T15:26:28.783Z,19.36
2019-02-18T15:29:01.854Z,19.37
2019-02-18T15:31:36.949Z,19.42
2019-02-18T15:34:10.756Z,19.41
2019-02-18T15:36:45.301Z,19.26
2019-02-18T15:39:18.697Z,19.07
2019-02-18T15:41:54.816Z,18.93
2019-02-18T15:44:33.571Z,18.81
2019-02-18T15:47:06.660Z,18.74
2019-02-18T15:49:41.969Z,18.73
2019-02-18T15:52:18.022Z,18.73
2019-02-18T15:55:03.400Z,18.51
2019-02-18T15:57:53.680Z,18.26
2019-02-18T16:00:29.881Z,18.00
2019-02-18T16:03:04.420Z,17.74
2019-02-18T16:05:39.196Z,17.40
2019-02-18T16:08:15.674Z,17.10
2019-02-18T16:10:56.419Z,16.82
2019-02-18T16:13:33.909Z,16.42
2019-02-18T16:16:07.322Z,16.09
2019-02-18T16:18:40.027Z,15.82
2019-02-18T16:21:13.263Z,15.65
2019-02-18T16:23:47.196Z,15.50
2019-02-18T16:26:20.982Z,15.39
2019-02-18T16:28:57.162Z,15.25
2019-02-18T16:31:30.610Z,15.04
2019-02-18T16:34:05.093Z,14.83
2019-02-18T16:36:40.435Z,14.65
2019-02-18T16:39:16.379Z,14.49
2019-02-18T16:41:50.587Z,14.32
2019-02-18T16:44:26.180Z,14.19
2019-02-18T16:46:59.818Z,14.01
2019-02-18T16:49:37.060Z,14.09
2019-02-18T16:52:13.671Z,14.23
2019-02-18T16:54:47.214Z,14.24
2019-02-18T16:57:22.723Z,14.25
2019-02-18T16:59:57.306Z,14.16
2019-02-18T17:02:44.021Z,14.07
2019-02-18T17:05:17.530Z,13.94
2019-02-18T17:07:56.411Z,13.86
2019-02-18T17:10:30.582Z,13.73
2019-02-18T17:13:11.095Z,13.65
2019-02-18T17:15:47.387Z,13.58
2019-02-18T17:18:22.039Z,13.47
2019-02-18T17:20:55.533Z,13.20
2019-02-18T17:23:29.824Z,12.92
2019-02-18T17:26:02.540Z,12.67
2019-02-18T17:28:36.572Z,12.50
2019-02-18T17:31:09.404Z,12.34
2019-02-18T17:33:46.599Z,12.21
2019-02-18T17:36:24.988Z,12.06
2019-02-18T17:39:05.040Z,11.95
2019-02-18T17:41:46.367Z,11.88
2019-02-18T17:44:21.227Z,11.81
2019-02-18T17:46:56.112Z,11.77
2019-02-18T17:49:30.551Z,11.78
2019-02-18T17:52:03.084Z,11.76
2019-02-18T17:54:41.389Z,11.70
2019-02-18T17:57:19.564Z,11.69
2019-02-18T17:59:52.145Z,11.67
2019-02-18T18:02:30.314Z,11.61
2019-02-18T18:05:08.631Z,11.55
2019-02-18T18:07:42.683Z,11.50
2019-02-18T18:10:20.071Z,11.44
2019-02-18T18:12:56.713Z,11.39
2019-02-18T18:15:35.175Z,11.33
2019-02-18T18:18:08.619Z,11.35
2019-02-18T18:20:44.758Z,11.33
2019-02-18T18:23:21.227Z,11.27
2019-02-18T18:26:04.927Z,11.23
2019-02-18T18:28:39.037Z,11.15
2019-02-18T18:31:12.250Z,11.12
2019-02-18T18:33:45.924Z,11.15
2019-02-18T18:36:21.660Z,11.07
2019-02-18T18:39:04.895Z,11.00
2019-02-18T18:41:42.212Z,10.99
2019-02-18T18:44:15.693Z,10.98
2019-02-18T18:46:50.249Z,10.96
2019-02-18T18:49:30.912Z,10.92
2019-02-18T18:52:05.076Z,10.84
2019-02-18T18:54:39.223Z,10.74
2019-02-18T18:57:13.474Z,10.74
2019-02-18T18:59:58.304Z,10.73
2019-02-18T19:02:31.680Z,10.75
2019-02-18T19:05:08.327Z,10.77
2019-02-18T19:07:43.720Z,10.79
2019-02-18T19:10:25.336Z,10.79
2019-02-18T19:13:00.705Z,10.76
2019-02-18T19:15:34.388Z,10.66
2019-02-18T19:18:10.211Z,10.58
2019-02-18T19:20:45.533Z,10.51
2019-02-18T19:23:22.771Z,10.44
2019-02-18T19:26:01.655Z,10.41
2019-02-18T19:28:36.728Z,10.34
2019-02-18T19:31:13.277Z,10.25
2019-02-18T19:33:47.014Z,10.18
2019-02-18T19:36:45.321Z,10.10
2019-02-18T19:39:47.980Z,10.04
2019-02-18T19:42:31.636Z,9.97
2019-02-18T19:45:13.456Z,9.89
2019-02-18T19:47:51.998Z,9.85
2019-02-18T19:50:26.393Z,9.85
2019-02-18T19:53:01.811Z,9.84
2019-02-18T19:55:50.719Z,9.80
2019-02-18T19:58:36.779Z,9.82
2019-02-18T20:01:11.433Z,9.83
2019-02-18T20:03:46.598Z,9.81
2019-02-18T20:06:30.354Z,9.77
2019-02-18T20:09:12.871Z,9.72
2019-02-18T20:11:49.606Z,9.66
2019-02-18T20:14:31.526Z,9.58
2019-02-18T20:17:09.711Z,9.53
2019-02-18T20:19:44.815Z,9.48
2019-02-18T20:22:21.679Z,9.41
2019-02-18T20:24:55.706Z,9.38
2019-02-18T20:27:30.462Z,9.41
2019-02-18T20:30:12.718Z,9.39
2019-02-18T20:32:45.626Z,9.35
2019-02-18T20:35:24.008Z,9.35
2019-02-18T20:37:57.595Z,9.41
2019-02-18T20:40:31.654Z,9.46
2019-02-18T20:43:06.701Z,9.48
2019-02-18T20:45:39.979Z,9.46
2019-02-18T20:48:13.865Z,9.45
2019-02-18T20:50:49.688Z,9.46
2019-02-18T20:53:24.949Z,9.43
2019-02-18T20:55:57.679Z,9.36
2019-02-18T20:58:33.569Z,9.31
2019-02-18T21:01:07.588Z,9.22
2019-02-18T21:03:42.886Z,9.20
2019-02-18T21:06:23.874Z,9.19
2019-02-18T21:09:00.656Z,9.16
2019-02-18T21:11:34.039Z,9.17
2019-02-18T21:14:06.672Z,9.18
2019-02-18T21:16:39.498Z,9.18
2019-02-18T21:19:12.201Z,9.22
2019-02-18T21:21:51.724Z,9.21
2019-02-18T21:24:28.735Z,9.23
2019-02-18T21:27:02.843Z,9.27
2019-02-18T21:29:43.895Z,9.25
2019-02-18T21:32:25.179Z,9.23
2019-02-18T21:34:57.791Z,9.13
2019-02-18T21:37:31.974Z,9.06
2019-02-18T21:40:06.210Z,8.96
2019-02-18T21:42:39.057Z,8.93
2019-02-18T21:45:20.337Z,8.90
2019-02-18T21:47:55.460Z,8.88
2019-02-18T21:50:29.143Z,8.81
2019-02-18T21:53:02.847Z,8.77
2019-02-18T21:55:44.747Z,8.79
2019-02-18T21:58:19.603Z,8.76
2019-02-18T22:00:55.836Z,8.76
2019-02-18T22:03:30.415Z,8.82
2019-02-18T22:06:04.055Z,8.84
2019-02-18T22:08:37.573Z,8.84
2019-02-18T22:11:14.450Z,8.85
2019-02-18T22:13:49.971Z,8.83
2019-02-18T22:16:42.598Z,8.79
2019-02-18T22:19:18.342Z,8.76
2019-02-18T22:21:51.541Z,8.72
2019-02-18T22:24:26.311Z,8.74
2019-02-18T22:26:59.817Z,8.82
2019-02-18T22:29:34.513Z,8.86
2019-02-18T22:32:07.548Z,8.96
2019-02-18T22:34:41.364Z,8.94
2019-02-18T22:37:15.571Z,8.90
2019-02-18T22:39:50.163Z,8.88
2019-02-18T22:42:22.751Z,8.83
2019-02-18T22:44:55.651Z,8.78
2019-02-18T22:47:28.734Z,8.73
2019-02-18T22:50:01.532Z,8.74
2019-02-18T22:52:34.175Z,8.78
2019-02-18T22:55:07.989Z,8.79
2019-02-18T22:57:40.474Z,8.84
2019-02-18T23:00:55.945Z,8.88
2019-02-18T23:03:30.432Z,8.97
2019-02-18T23:06:05.872Z,8.95
2019-02-18T23:08:48.946Z,8.89
2019-02-18T23:11:21.753Z,8.92
2019-02-18T23:13:55.091Z,8.98
2019-02-18T23:16:29.127Z,8.97
2019-02-18T23:19:03.336Z,8.91
2019-02-18T23:21:36.622Z,8.87
2019-02-18T23:24:10.098Z,8.84
2019-02-18T23:26:44.810Z,8.81
2019-02-18T23:29:21.726Z,8.77
2019-02-18T23:31:57.174Z,8.72
2019-02-18T23:34:30.918Z,8.61
2019-02-18T23:37:04.078Z,8.53
2019-02-18T23:39:38.491Z,8.47
2019-02-18T23:42:12.545Z,8.43
2019-02-18T23:44:46.558Z,8.35
2019-02-18T23:47:19.098Z,8.31
2019-02-18T23:49:52.532Z,8.32
2019-02-18T23:52:26.671Z,8.31
2019-02-18T23:55:00.882Z,8.27
2019-02-18T23:57:33.596Z,8.22
